sensor_id;sensor_type;location;lat;lon;timestamp;temperature;humidity
43679;DHT22;29279;50.858;4.392;2024-03-07T00:00:05;9.60;99.90
43679;DHT22;29279;50.858;4.392;2024-03-07T00:05:08;9.60;99.90
43679;DHT22;29279;50.858;4.392;2024-03-07T00:07:34;9.50;99.90
43679;DHT22;29279;50.858;4.392;2024-03-07T00:10:03;9.50;99.90
43679;DHT22;29279;50.858;4.392;2024-03-07T00:12:29;9.50;99.90
43679;DHT22;29279;50.858;4.392;2024-03-07T00:14:55;9.50;99.90
43679;DHT22;29279;50.858;4.392;2024-03-07T00:17:21;9.60;99.90
43679;DHT22;29279;50.858;4.392;2024-03-07T00:19:48;9.50;99.90
43679;DHT22;29279;50.858;4.392;2024-03-07T00:22:14;9.50;99.90
43679;DHT22;29279;50.858;4.392;2024-03-07T00:24:40;9.50;99.90
43679;DHT22;29279;50.858;4.392;2024-03-07T00:27:08;9.50;99.90
43679;DHT22;29279;50.858;4.392;2024-03-07T00:29:34;9.40;99.90
43679;DHT22;29279;50.858;4.392;2024-03-07T00:32:03;9.40;99.90
43679;DHT22;29279;50.858;4.392;2024-03-07T00:34:29;9.30;99.90
43679;DHT22;29279;50.858;4.392;2024-03-07T00:36:55;9.20;99.90
43679;DHT22;29279;50.858;4.392;2024-03-07T00:39:23;9.20;99.90
43679;DHT22;29279;50.858;4.392;2024-03-07T00:41:49;9.20;99.90
43679;DHT22;29279;50.858;4.392;2024-03-07T00:44:15;9.10;99.90
43679;DHT22;29279;50.858;4.392;2024-03-07T00:46:40;9.10;99.90
43679;DHT22;29279;50.858;4.392;2024-03-07T00:49:06;9.10;99.90
43679;DHT22;29279;50.858;4.392;2024-03-07T00:51:32;9.10;99.90
43679;DHT22;29279;50.858;4.392;2024-03-07T00:53:57;9.00;99.90
43679;DHT22;29279;50.858;4.392;2024-03-07T00:56:26;9.00;99.90
43679;DHT22;29279;50.858;4.392;2024-03-07T00:58:52;8.90;99.90
43679;DHT22;29279;50.858;4.392;2024-03-07T01:01:18;8.80;99.90
43679;DHT22;29279;50.858;4.392;2024-03-07T01:03:45;8.80;99.90
43679;DHT22;29279;50.858;4.392;2024-03-07T01:06:11;8.80;99.90
43679;DHT22;29279;50.858;4.392;2024-03-07T01:08:37;8.80;99.90
43679;DHT22;29279;50.858;4.392;2024-03-07T01:11:04;8.80;99.90
43679;DHT22;29279;50.858;4.392;2024-03-07T01:13:44;8.80;99.90
43679;DHT22;29279;50.858;4.392;2024-03-07T01:16:10;8.90;99.90
43679;DHT22;29279;50.858;4.392;2024-03-07T01:18:37;8.90;99.90
43679;DHT22;29279;50.858;4.392;2024-03-07T01:21:04;8.80;99.90
43679;DHT22;29279;50.858;4.392;2024-03-07T01:23:31;8.80;99.90
43679;DHT22;29279;50.858;4.392;2024-03-07T01:25:58;8.80;99.90
43679;DHT22;29279;50.858;4.392;2024-03-07T01:28:25;8.80;99.90
43679;DHT22;29279;50.858;4.392;2024-03-07T01:30:51;8.80;99.90
43679;DHT22;29279;50.858;4.392;2024-03-07T01:33:21;8.80;99.90
43679;DHT22;29279;50.858;4.392;2024-03-07T01:35:47;8.90;99.90
43679;DHT22;29279;50.858;4.392;2024-03-07T01:38:14;8.80;99.90
43679;DHT22;29279;50.858;4.392;2024-03-07T01:40:41;8.80;99.90
43679;DHT22;29279;50.858;4.392;2024-03-07T01:43:07;8.80;99.90
43679;DHT22;29279;50.858;4.392;2024-03-07T01:45:33;8.80;99.90
43679;DHT22;29279;50.858;4.392;2024-03-07T01:48:06;8.80;99.90
43679;DHT22;29279;50.858;4.392;2024-03-07T01:50:35;8.70;99.90
43679;DHT22;29279;50.858;4.392;2024-03-07T01:53:04;8.70;99.90
43679;DHT22;29279;50.858;4.392;2024-03-07T01:55:32;8.70;99.90
43679;DHT22;29279;50.858;4.392;2024-03-07T01:58:02;8.70;99.90
43679;DHT22;29279;50.858;4.392;2024-03-07T02:00:30;8.70;99.90
43679;DHT22;29279;50.858;4.392;2024-03-07T02:02:56;8.70;99.90
43679;DHT22;29279;50.858;4.392;2024-03-07T02:05:22;8.70;99.90
43679;DHT22;29279;50.858;4.392;2024-03-07T02:07:49;8.70;99.90
43679;DHT22;29279;50.858;4.392;2024-03-07T02:10:15;8.70;99.90
43679;DHT22;29279;50.858;4.392;2024-03-07T02:12:42;8.70;99.90
43679;DHT22;29279;50.858;4.392;2024-03-07T02:15:08;8.60;99.90
43679;DHT22;29279;50.858;4.392;2024-03-07T02:17:34;8.60;99.90
43679;DHT22;29279;50.858;4.392;2024-03-07T02:20:01;8.70;99.90
43679;DHT22;29279;50.858;4.392;2024-03-07T02:22:29;8.70;99.90
43679;DHT22;29279;50.858;4.392;2024-03-07T02:24:55;8.60;99.90
43679;DHT22;29279;50.858;4.392;2024-03-07T02:27:20;8.60;99.90
43679;DHT22;29279;50.858;4.392;2024-03-07T02:29:46;8.60;99.90
43679;DHT22;29279;50.858;4.392;2024-03-07T02:32:12;8.60;99.90
43679;DHT22;29279;50.858;4.392;2024-03-07T02:34:38;8.50;99.90
43679;DHT22;29279;50.858;4.392;2024-03-07T02:37:04;8.40;99.90
43679;DHT22;29279;50.858;4.392;2024-03-07T02:39:30;8.40;99.90
43679;DHT22;29279;50.858;4.392;2024-03-07T02:41:56;8.40;99.90
43679;DHT22;29279;50.858;4.392;2024-03-07T02:44:21;8.40;99.90
43679;DHT22;29279;50.858;4.392;2024-03-07T02:46:47;8.40;99.90
43679;DHT22;29279;50.858;4.392;2024-03-07T02:49:13;8.40;99.90
43679;DHT22;29279;50.858;4.392;2024-03-07T02:51:40;8.30;99.90
43679;DHT22;29279;50.858;4.392;2024-03-07T02:54:07;8.30;99.90
43679;DHT22;29279;50.858;4.392;2024-03-07T02:56:33;8.30;99.90
43679;DHT22;29279;50.858;4.392;2024-03-07T02:58:59;8.20;99.90
43679;DHT22;29279;50.858;4.392;2024-03-07T03:01:25;8.30;99.90
43679;DHT22;29279;50.858;4.392;2024-03-07T03:03:51;8.30;99.90
43679;DHT22;29279;50.858;4.392;2024-03-07T03:06:17;8.20;99.90
43679;DHT22;29279;50.858;4.392;2024-03-07T03:08:46;8.20;99.90
43679;DHT22;29279;50.858;4.392;2024-03-07T03:11:12;8.20;99.90
43679;DHT22;29279;50.858;4.392;2024-03-07T03:13:42;8.20;99.90
43679;DHT22;29279;50.858;4.392;2024-03-07T03:16:09;8.10;99.90
43679;DHT22;29279;50.858;4.392;2024-03-07T03:18:35;8.10;99.90
43679;DHT22;29279;50.858;4.392;2024-03-07T03:21:01;8.10;99.90
43679;DHT22;29279;50.858;4.392;2024-03-07T03:23:31;8.20;99.90
43679;DHT22;29279;50.858;4.392;2024-03-07T03:25:56;8.00;99.90
43679;DHT22;29279;50.858;4.392;2024-03-07T03:28:23;8.00;99.90
43679;DHT22;29279;50.858;4.392;2024-03-07T03:30:49;8.00;99.90
43679;DHT22;29279;50.858;4.392;2024-03-07T03:33:15;8.00;99.90
43679;DHT22;29279;50.858;4.392;2024-03-07T03:35:41;8.10;99.90
43679;DHT22;29279;50.858;4.392;2024-03-07T03:38:08;8.00;99.90
43679;DHT22;29279;50.858;4.392;2024-03-07T03:40:34;8.00;99.90
43679;DHT22;29279;50.858;4.392;2024-03-07T03:43:00;8.00;99.90
43679;DHT22;29279;50.858;4.392;2024-03-07T03:45:26;8.00;99.90
43679;DHT22;29279;50.858;4.392;2024-03-07T03:47:53;8.00;99.90
43679;DHT22;29279;50.858;4.392;2024-03-07T03:50:19;8.00;99.90
43679;DHT22;29279;50.858;4.392;2024-03-07T03:52:44;8.00;99.90
43679;DHT22;29279;50.858;4.392;2024-03-07T03:55:11;7.90;99.90
43679;DHT22;29279;50.858;4.392;2024-03-07T03:57:39;7.90;99.90
43679;DHT22;29279;50.858;4.392;2024-03-07T04:00:06;7.90;99.90
43679;DHT22;29279;50.858;4.392;2024-03-07T04:02:41;7.90;99.90
43679;DHT22;29279;50.858;4.392;2024-03-07T04:05:09;7.80;99.90
43679;DHT22;29279;50.858;4.392;2024-03-07T04:07:35;7.80;99.90
43679;DHT22;29279;50.858;4.392;2024-03-07T04:10:02;7.80;99.90
43679;DHT22;29279;50.858;4.392;2024-03-07T04:12:33;7.80;99.90
43679;DHT22;29279;50.858;4.392;2024-03-07T04:14:59;7.70;99.90
43679;DHT22;29279;50.858;4.392;2024-03-07T04:17:26;7.80;99.90
43679;DHT22;29279;50.858;4.392;2024-03-07T04:19:52;7.80;99.90
43679;DHT22;29279;50.858;4.392;2024-03-07T04:22:17;7.70;99.90
43679;DHT22;29279;50.858;4.392;2024-03-07T04:24:45;7.60;99.90
43679;DHT22;29279;50.858;4.392;2024-03-07T04:27:11;7.50;99.90
43679;DHT22;29279;50.858;4.392;2024-03-07T04:29:37;7.50;99.90
43679;DHT22;29279;50.858;4.392;2024-03-07T04:32:03;7.50;99.90
43679;DHT22;29279;50.858;4.392;2024-03-07T04:34:32;7.50;99.90
43679;DHT22;29279;50.858;4.392;2024-03-07T04:36:58;7.40;99.90
43679;DHT22;29279;50.858;4.392;2024-03-07T04:39:27;7.40;99.90
43679;DHT22;29279;50.858;4.392;2024-03-07T04:42:05;7.40;99.90
43679;DHT22;29279;50.858;4.392;2024-03-07T04:44:32;7.30;99.90
43679;DHT22;29279;50.858;4.392;2024-03-07T04:47:01;7.40;99.90
43679;DHT22;29279;50.858;4.392;2024-03-07T04:49:28;7.30;99.90
43679;DHT22;29279;50.858;4.392;2024-03-07T04:51:56;7.30;99.90
43679;DHT22;29279;50.858;4.392;2024-03-07T04:54:23;7.20;99.90
43679;DHT22;29279;50.858;4.392;2024-03-07T04:56:50;7.30;99.90
43679;DHT22;29279;50.858;4.392;2024-03-07T04:59:17;7.20;99.90
43679;DHT22;29279;50.858;4.392;2024-03-07T05:01:44;7.20;99.90
43679;DHT22;29279;50.858;4.392;2024-03-07T05:04:12;7.30;99.90
43679;DHT22;29279;50.858;4.392;2024-03-07T05:06:38;7.30;99.90
43679;DHT22;29279;50.858;4.392;2024-03-07T05:09:05;7.40;99.90
43679;DHT22;29279;50.858;4.392;2024-03-07T05:11:33;7.40;99.90
43679;DHT22;29279;50.858;4.392;2024-03-07T05:13:59;7.40;99.90
43679;DHT22;29279;50.858;4.392;2024-03-07T05:16:29;7.50;99.90
43679;DHT22;29279;50.858;4.392;2024-03-07T05:18:55;7.60;99.90
43679;DHT22;29279;50.858;4.392;2024-03-07T05:21:25;7.60;99.90
43679;DHT22;29279;50.858;4.392;2024-03-07T05:23:58;7.60;99.90
43679;DHT22;29279;50.858;4.392;2024-03-07T05:26:24;7.40;99.90
43679;DHT22;29279;50.858;4.392;2024-03-07T05:28:50;7.40;99.90
43679;DHT22;29279;50.858;4.392;2024-03-07T05:31:17;7.40;99.90
43679;DHT22;29279;50.858;4.392;2024-03-07T05:33:44;7.50;99.90
43679;DHT22;29279;50.858;4.392;2024-03-07T05:36:10;7.60;99.90
43679;DHT22;29279;50.858;4.392;2024-03-07T05:38:44;7.50;99.90
43679;DHT22;29279;50.858;4.392;2024-03-07T05:41:13;7.60;99.90
43679;DHT22;29279;50.858;4.392;2024-03-07T05:43:39;7.60;99.90
43679;DHT22;29279;50.858;4.392;2024-03-07T05:46:05;7.60;99.90
43679;DHT22;29279;50.858;4.392;2024-03-07T05:48:35;7.60;99.90
43679;DHT22;29279;50.858;4.392;2024-03-07T05:51:01;7.50;99.90
43679;DHT22;29279;50.858;4.392;2024-03-07T05:53:26;7.50;99.90
43679;DHT22;29279;50.858;4.392;2024-03-07T05:55:52;7.50;99.90
43679;DHT22;29279;50.858;4.392;2024-03-07T05:58:19;7.50;99.90
43679;DHT22;29279;50.858;4.392;2024-03-07T06:00:47;7.50;99.90
43679;DHT22;29279;50.858;4.392;2024-03-07T06:03:21;7.40;99.90
43679;DHT22;29279;50.858;4.392;2024-03-07T06:05:47;7.40;99.90
43679;DHT22;29279;50.858;4.392;2024-03-07T06:08:17;7.40;99.90
43679;DHT22;29279;50.858;4.392;2024-03-07T06:10:43;7.40;99.90
43679;DHT22;29279;50.858;4.392;2024-03-07T06:13:14;7.40;99.90
43679;DHT22;29279;50.858;4.392;2024-03-07T06:15:43;7.40;99.90
43679;DHT22;29279;50.858;4.392;2024-03-07T06:18:09;7.30;99.90
43679;DHT22;29279;50.858;4.392;2024-03-07T06:20:42;7.40;99.90
43679;DHT22;29279;50.858;4.392;2024-03-07T06:23:09;7.50;99.90
43679;DHT22;29279;50.858;4.392;2024-03-07T06:25:37;7.60;99.90
43679;DHT22;29279;50.858;4.392;2024-03-07T06:28:13;7.40;99.90
43679;DHT22;29279;50.858;4.392;2024-03-07T06:30:40;7.50;99.90
43679;DHT22;29279;50.858;4.392;2024-03-07T06:33:06;7.50;99.90
43679;DHT22;29279;50.858;4.392;2024-03-07T06:35:33;7.50;99.90
43679;DHT22;29279;50.858;4.392;2024-03-07T06:38:11;7.40;99.90
43679;DHT22;29279;50.858;4.392;2024-03-07T06:40:39;7.50;99.90
43679;DHT22;29279;50.858;4.392;2024-03-07T06:43:08;7.40;99.90
43679;DHT22;29279;50.858;4.392;2024-03-07T06:45:36;7.50;99.90
43679;DHT22;29279;50.858;4.392;2024-03-07T06:48:08;7.40;99.90
43679;DHT22;29279;50.858;4.392;2024-03-07T06:50:35;7.30;99.90
43679;DHT22;29279;50.858;4.392;2024-03-07T06:53:05;7.30;99.90
43679;DHT22;29279;50.858;4.392;2024-03-07T06:55:34;7.30;99.90
43679;DHT22;29279;50.858;4.392;2024-03-07T06:58:00;7.50;99.90
43679;DHT22;29279;50.858;4.392;2024-03-07T07:00:26;7.70;99.90
43679;DHT22;29279;50.858;4.392;2024-03-07T07:02:52;7.80;99.90
43679;DHT22;29279;50.858;4.392;2024-03-07T07:05:20;7.90;99.90
43679;DHT22;29279;50.858;4.392;2024-03-07T07:07:47;7.90;99.90
43679;DHT22;29279;50.858;4.392;2024-03-07T07:10:13;7.90;99.90
43679;DHT22;29279;50.858;4.392;2024-03-07T07:12:47;7.80;99.90
43679;DHT22;29279;50.858;4.392;2024-03-07T07:15:15;7.70;99.90
43679;DHT22;29279;50.858;4.392;2024-03-07T07:17:44;7.70;99.90
43679;DHT22;29279;50.858;4.392;2024-03-07T07:20:12;7.80;99.90
43679;DHT22;29279;50.858;4.392;2024-03-07T07:22:41;7.80;99.90
43679;DHT22;29279;50.858;4.392;2024-03-07T07:25:07;7.90;99.90
43679;DHT22;29279;50.858;4.392;2024-03-07T07:27:46;8.10;99.90
43679;DHT22;29279;50.858;4.392;2024-03-07T07:30:14;8.10;99.90
43679;DHT22;29279;50.858;4.392;2024-03-07T07:32:40;8.00;99.90
43679;DHT22;29279;50.858;4.392;2024-03-07T07:35:07;8.00;99.90
43679;DHT22;29279;50.858;4.392;2024-03-07T07:37:43;8.00;99.90
43679;DHT22;29279;50.858;4.392;2024-03-07T07:40:10;8.00;99.90
43679;DHT22;29279;50.858;4.392;2024-03-07T07:42:39;7.90;99.90
43679;DHT22;29279;50.858;4.392;2024-03-07T07:45:11;7.90;99.90
43679;DHT22;29279;50.858;4.392;2024-03-07T07:47:41;8.00;99.90
43679;DHT22;29279;50.858;4.392;2024-03-07T07:50:09;7.70;99.90
43679;DHT22;29279;50.858;4.392;2024-03-07T07:52:44;7.80;99.90
43679;DHT22;29279;50.858;4.392;2024-03-07T07:55:10;7.80;99.90
43679;DHT22;29279;50.858;4.392;2024-03-07T07:57:44;7.80;99.90
43679;DHT22;29279;50.858;4.392;2024-03-07T08:00:15;7.90;99.90
43679;DHT22;29279;50.858;4.392;2024-03-07T08:03:01;8.00;99.90
43679;DHT22;29279;50.858;4.392;2024-03-07T08:05:28;8.00;99.90
43679;DHT22;29279;50.858;4.392;2024-03-07T08:07:56;8.10;99.90
43679;DHT22;29279;50.858;4.392;2024-03-07T08:10:25;8.00;99.90
43679;DHT22;29279;50.858;4.392;2024-03-07T08:12:51;8.00;99.90
43679;DHT22;29279;50.858;4.392;2024-03-07T08:15:17;8.00;99.90
43679;DHT22;29279;50.858;4.392;2024-03-07T08:17:46;8.00;99.90
43679;DHT22;29279;50.858;4.392;2024-03-07T08:20:14;8.00;99.90
43679;DHT22;29279;50.858;4.392;2024-03-07T08:22:41;8.00;99.90
43679;DHT22;29279;50.858;4.392;2024-03-07T08:25:17;8.10;99.90
43679;DHT22;29279;50.858;4.392;2024-03-07T08:27:45;8.20;99.90
43679;DHT22;29279;50.858;4.392;2024-03-07T08:30:14;8.20;99.90
43679;DHT22;29279;50.858;4.392;2024-03-07T08:32:51;8.30;99.90
43679;DHT22;29279;50.858;4.392;2024-03-07T08:35:19;8.40;99.90
43679;DHT22;29279;50.858;4.392;2024-03-07T08:37:47;8.50;99.90
43679;DHT22;29279;50.858;4.392;2024-03-07T08:40:18;8.60;99.90
43679;DHT22;29279;50.858;4.392;2024-03-07T08:42:48;8.60;99.90
43679;DHT22;29279;50.858;4.392;2024-03-07T08:45:16;8.60;99.90
43679;DHT22;29279;50.858;4.392;2024-03-07T08:47:45;8.70;99.90
43679;DHT22;29279;50.858;4.392;2024-03-07T08:50:12;8.70;99.90
43679;DHT22;29279;50.858;4.392;2024-03-07T08:52:39;8.80;99.90
43679;DHT22;29279;50.858;4.392;2024-03-07T08:55:06;8.80;99.90
43679;DHT22;29279;50.858;4.392;2024-03-07T08:57:38;8.90;99.90
43679;DHT22;29279;50.858;4.392;2024-03-07T09:00:07;8.80;99.90
43679;DHT22;29279;50.858;4.392;2024-03-07T09:02:40;8.80;99.90
43679;DHT22;29279;50.858;4.392;2024-03-07T09:05:07;8.90;99.90
43679;DHT22;29279;50.858;4.392;2024-03-07T09:07:36;9.10;99.90
43679;DHT22;29279;50.858;4.392;2024-03-07T09:10:02;9.20;99.90
43679;DHT22;29279;50.858;4.392;2024-03-07T09:12:27;9.30;99.90
43679;DHT22;29279;50.858;4.392;2024-03-07T09:14:53;9.50;99.90
43679;DHT22;29279;50.858;4.392;2024-03-07T09:17:21;9.50;99.90
43679;DHT22;29279;50.858;4.392;2024-03-07T09:19:47;9.60;99.90
43679;DHT22;29279;50.858;4.392;2024-03-07T09:22:12;9.60;99.90
43679;DHT22;29279;50.858;4.392;2024-03-07T09:24:39;9.60;99.90
43679;DHT22;29279;50.858;4.392;2024-03-07T09:27:05;9.70;99.90
43679;DHT22;29279;50.858;4.392;2024-03-07T09:29:31;9.80;99.90
43679;DHT22;29279;50.858;4.392;2024-03-07T09:31:56;9.90;99.90
43679;DHT22;29279;50.858;4.392;2024-03-07T09:34:25;10.00;99.90
43679;DHT22;29279;50.858;4.392;2024-03-07T09:36:51;10.20;99.90
43679;DHT22;29279;50.858;4.392;2024-03-07T09:39:17;10.20;99.90
43679;DHT22;29279;50.858;4.392;2024-03-07T09:41:44;10.40;99.90
43679;DHT22;29279;50.858;4.392;2024-03-07T09:44:14;10.50;99.90
43679;DHT22;29279;50.858;4.392;2024-03-07T09:46:40;10.70;99.90
43679;DHT22;29279;50.858;4.392;2024-03-07T09:49:07;11.40;99.90
43679;DHT22;29279;50.858;4.392;2024-03-07T09:51:36;11.60;99.90
43679;DHT22;29279;50.858;4.392;2024-03-07T09:54:02;11.70;99.90
43679;DHT22;29279;50.858;4.392;2024-03-07T09:56:30;12.70;99.90
43679;DHT22;29279;50.858;4.392;2024-03-07T09:59:03;13.20;99.90
43679;DHT22;29279;50.858;4.392;2024-03-07T10:01:32;13.80;99.90
43679;DHT22;29279;50.858;4.392;2024-03-07T10:04:00;13.40;99.90
43679;DHT22;29279;50.858;4.392;2024-03-07T10:06:52;13.30;99.90
43679;DHT22;29279;50.858;4.392;2024-03-07T10:09:21;13.50;99.90
43679;DHT22;29279;50.858;4.392;2024-03-07T10:11:56;13.20;99.90
43679;DHT22;29279;50.858;4.392;2024-03-07T10:14:22;13.40;99.90
43679;DHT22;29279;50.858;4.392;2024-03-07T10:16:48;15.00;99.90
43679;DHT22;29279;50.858;4.392;2024-03-07T10:19:13;16.30;99.90
43679;DHT22;29279;50.858;4.392;2024-03-07T10:21:41;17.40;99.90
43679;DHT22;29279;50.858;4.392;2024-03-07T10:24:07;18.10;99.90
43679;DHT22;29279;50.858;4.392;2024-03-07T10:26:37;18.70;99.90
43679;DHT22;29279;50.858;4.392;2024-03-07T10:29:04;18.90;99.90
43679;DHT22;29279;50.858;4.392;2024-03-07T10:31:31;19.90;98.30
43679;DHT22;29279;50.858;4.392;2024-03-07T10:34:01;20.60;96.60
43679;DHT22;29279;50.858;4.392;2024-03-07T10:36:30;20.70;95.10
43679;DHT22;29279;50.858;4.392;2024-03-07T10:39:00;21.20;95.00
43679;DHT22;29279;50.858;4.392;2024-03-07T10:41:28;21.50;93.40
43679;DHT22;29279;50.858;4.392;2024-03-07T10:43:57;21.60;93.10
43679;DHT22;29279;50.858;4.392;2024-03-07T10:46:26;21.50;92.70
43679;DHT22;29279;50.858;4.392;2024-03-07T10:48:55;21.90;92.80
43679;DHT22;29279;50.858;4.392;2024-03-07T10:51:40;22.30;92.10
43679;DHT22;29279;50.858;4.392;2024-03-07T10:57:37;23.40;90.10
43679;DHT22;29279;50.858;4.392;2024-03-07T11:00:04;22.90;90.00
43679;DHT22;29279;50.858;4.392;2024-03-07T11:02:50;23.70;89.20
43679;DHT22;29279;50.858;4.392;2024-03-07T11:05:21;24.50;87.10
43679;DHT22;29279;50.858;4.392;2024-03-07T11:07:50;24.30;85.10
43679;DHT22;29279;50.858;4.392;2024-03-07T11:10:19;24.40;85.90
43679;DHT22;29279;50.858;4.392;2024-03-07T11:12:47;24.70;84.00
43679;DHT22;29279;50.858;4.392;2024-03-07T11:15:16;24.60;83.90
43679;DHT22;29279;50.858;4.392;2024-03-07T11:17:49;23.80;83.30
43679;DHT22;29279;50.858;4.392;2024-03-07T11:20:22;23.50;83.30
43679;DHT22;29279;50.858;4.392;2024-03-07T11:22:49;22.80;84.40
43679;DHT22;29279;50.858;4.392;2024-03-07T11:25:18;23.60;84.20
43679;DHT22;29279;50.858;4.392;2024-03-07T11:27:58;24.60;81.60
43679;DHT22;29279;50.858;4.392;2024-03-07T11:30:24;24.90;80.70
43679;DHT22;29279;50.858;4.392;2024-03-07T11:32:52;25.40;79.80
43679;DHT22;29279;50.858;4.392;2024-03-07T11:35:32;24.50;79.00
43679;DHT22;29279;50.858;4.392;2024-03-07T11:38:01;23.20;80.00
43679;DHT22;29279;50.858;4.392;2024-03-07T11:42:56;22.70;81.50
43679;DHT22;29279;50.858;4.392;2024-03-07T11:45:26;22.40;81.30
43679;DHT22;29279;50.858;4.392;2024-03-07T11:47:56;23.00;81.30
43679;DHT22;29279;50.858;4.392;2024-03-07T11:50:43;23.90;79.40
43679;DHT22;29279;50.858;4.392;2024-03-07T11:53:09;23.70;79.30
43679;DHT22;29279;50.858;4.392;2024-03-07T11:55:39;24.40;78.40
43679;DHT22;29279;50.858;4.392;2024-03-07T11:58:21;24.80;77.00
43679;DHT22;29279;50.858;4.392;2024-03-07T12:00:51;24.70;74.70
43679;DHT22;29279;50.858;4.392;2024-03-07T12:03:21;24.50;75.70
43679;DHT22;29279;50.858;4.392;2024-03-07T12:05:50;24.10;76.40
43679;DHT22;29279;50.858;4.392;2024-03-07T12:08:18;23.20;77.10
43679;DHT22;29279;50.858;4.392;2024-03-07T12:10:48;23.50;76.00
43679;DHT22;29279;50.858;4.392;2024-03-07T12:13:17;22.10;76.80
43679;DHT22;29279;50.858;4.392;2024-03-07T12:15:45;20.70;79.50
43679;DHT22;29279;50.858;4.392;2024-03-07T12:18:11;20.10;81.00
43679;DHT22;29279;50.858;4.392;2024-03-07T12:20:44;20.00;81.00
43679;DHT22;29279;50.858;4.392;2024-03-07T12:23:15;19.80;81.20
43679;DHT22;29279;50.858;4.392;2024-03-07T12:25:45;19.70;81.80
43679;DHT22;29279;50.858;4.392;2024-03-07T12:28:14;19.40;82.80
43679;DHT22;29279;50.858;4.392;2024-03-07T12:33:14;18.40;84.90
43679;DHT22;29279;50.858;4.392;2024-03-07T12:35:46;18.20;85.50
43679;DHT22;29279;50.858;4.392;2024-03-07T12:38:12;17.80;85.90
43679;DHT22;29279;50.858;4.392;2024-03-07T12:40:40;17.80;86.90
43679;DHT22;29279;50.858;4.392;2024-03-07T12:43:19;17.90;85.70
43679;DHT22;29279;50.858;4.392;2024-03-07T12:45:50;18.20;86.30
43679;DHT22;29279;50.858;4.392;2024-03-07T12:48:19;19.20;85.30
43679;DHT22;29279;50.858;4.392;2024-03-07T12:50:47;19.60;84.50
43679;DHT22;29279;50.858;4.392;2024-03-07T12:53:19;19.30;84.60
43679;DHT22;29279;50.858;4.392;2024-03-07T12:55:45;19.10;84.70
43679;DHT22;29279;50.858;4.392;2024-03-07T12:58:12;19.80;82.90
43679;DHT22;29279;50.858;4.392;2024-03-07T13:00:41;20.70;82.40
43679;DHT22;29279;50.858;4.392;2024-03-07T13:03:08;21.90;81.40
43679;DHT22;29279;50.858;4.392;2024-03-07T13:05:38;23.00;79.60
43679;DHT22;29279;50.858;4.392;2024-03-07T13:08:08;22.80;77.20
43679;DHT22;29279;50.858;4.392;2024-03-07T13:10:44;22.30;79.30
43679;DHT22;29279;50.858;4.392;2024-03-07T13:13:10;23.00;77.30
43679;DHT22;29279;50.858;4.392;2024-03-07T13:15:40;23.40;76.50
43679;DHT22;29279;50.858;4.392;2024-03-07T13:18:08;23.50;75.30
43679;DHT22;29279;50.858;4.392;2024-03-07T13:20:35;23.90;75.20
43679;DHT22;29279;50.858;4.392;2024-03-07T13:23:01;23.30;74.20
43679;DHT22;29279;50.858;4.392;2024-03-07T13:25:28;21.60;76.50
43679;DHT22;29279;50.858;4.392;2024-03-07T13:28:05;20.80;78.90
43679;DHT22;29279;50.858;4.392;2024-03-07T13:30:42;21.00;77.10
43679;DHT22;29279;50.858;4.392;2024-03-07T13:33:09;21.40;76.20
43679;DHT22;29279;50.858;4.392;2024-03-07T13:35:39;21.80;75.30
43679;DHT22;29279;50.858;4.392;2024-03-07T13:38:06;22.50;74.60
43679;DHT22;29279;50.858;4.392;2024-03-07T13:40:32;22.70;74.80
43679;DHT22;29279;50.858;4.392;2024-03-07T13:43:01;23.10;73.20
43679;DHT22;29279;50.858;4.392;2024-03-07T13:45:30;23.30;73.20
43679;DHT22;29279;50.858;4.392;2024-03-07T13:47:58;23.20;74.40
43679;DHT22;29279;50.858;4.392;2024-03-07T13:50:28;22.40;73.20
43679;DHT22;29279;50.858;4.392;2024-03-07T13:52:55;20.90;74.30
43679;DHT22;29279;50.858;4.392;2024-03-07T14:20:44;22.00;73.70
43679;DHT22;29279;50.858;4.392;2024-03-07T14:29:20;21.80;74.00
43679;DHT22;29279;50.858;4.392;2024-03-07T14:31:46;22.10;71.20
43679;DHT22;29279;50.858;4.392;2024-03-07T14:37:17;22.00;72.00
43679;DHT22;29279;50.858;4.392;2024-03-07T14:39:43;22.20;71.40
43679;DHT22;29279;50.858;4.392;2024-03-07T14:42:14;22.00;73.60
43679;DHT22;29279;50.858;4.392;2024-03-07T14:44:42;22.30;72.20
43679;DHT22;29279;50.858;4.392;2024-03-07T14:47:11;22.60;71.00
43679;DHT22;29279;50.858;4.392;2024-03-07T14:49:40;22.50;70.90
43679;DHT22;29279;50.858;4.392;2024-03-07T14:52:07;22.30;71.60
43679;DHT22;29279;50.858;4.392;2024-03-07T14:54:42;20.90;72.20
43679;DHT22;29279;50.858;4.392;2024-03-07T14:57:08;19.70;74.90
43679;DHT22;29279;50.858;4.392;2024-03-07T14:59:37;19.70;74.40
43679;DHT22;29279;50.858;4.392;2024-03-07T15:02:03;19.30;75.20
43679;DHT22;29279;50.858;4.392;2024-03-07T15:04:36;19.10;75.90
43679;DHT22;29279;50.858;4.392;2024-03-07T15:07:02;19.30;77.30
43679;DHT22;29279;50.858;4.392;2024-03-07T15:09:28;19.20;75.50
43679;DHT22;29279;50.858;4.392;2024-03-07T15:11:55;19.30;76.10
43679;DHT22;29279;50.858;4.392;2024-03-07T15:14:22;19.50;74.30
43679;DHT22;29279;50.858;4.392;2024-03-07T15:16:48;19.40;74.80
43679;DHT22;29279;50.858;4.392;2024-03-07T15:19:15;19.40;74.70
43679;DHT22;29279;50.858;4.392;2024-03-07T15:21:41;19.30;75.00
43679;DHT22;29279;50.858;4.392;2024-03-07T15:24:07;19.20;76.20
43679;DHT22;29279;50.858;4.392;2024-03-07T15:26:33;18.60;75.40
43679;DHT22;29279;50.858;4.392;2024-03-07T15:29:00;18.40;77.30
43679;DHT22;29279;50.858;4.392;2024-03-07T15:31:26;18.30;76.60
43679;DHT22;29279;50.858;4.392;2024-03-07T15:33:52;18.10;77.10
43679;DHT22;29279;50.858;4.392;2024-03-07T15:36:19;18.00;76.70
43679;DHT22;29279;50.858;4.392;2024-03-07T15:38:45;17.80;78.00
43679;DHT22;29279;50.858;4.392;2024-03-07T15:41:11;17.60;80.00
43679;DHT22;29279;50.858;4.392;2024-03-07T15:43:43;17.30;77.30
43679;DHT22;29279;50.858;4.392;2024-03-07T15:46:14;17.00;81.80
43679;DHT22;29279;50.858;4.392;2024-03-07T15:48:44;16.90;79.70
43679;DHT22;29279;50.858;4.392;2024-03-07T15:51:10;16.60;79.90
43679;DHT22;29279;50.858;4.392;2024-03-07T15:53:37;16.40;81.20
43679;DHT22;29279;50.858;4.392;2024-03-07T15:56:03;16.20;80.40
43679;DHT22;29279;50.858;4.392;2024-03-07T15:58:32;15.90;80.30
43679;DHT22;29279;50.858;4.392;2024-03-07T16:00:58;15.70;81.00
43679;DHT22;29279;50.858;4.392;2024-03-07T16:03:23;15.50;81.40
43679;DHT22;29279;50.858;4.392;2024-03-07T16:05:50;15.20;82.90
43679;DHT22;29279;50.858;4.392;2024-03-07T16:08:17;15.30;81.30
43679;DHT22;29279;50.858;4.392;2024-03-07T16:10:44;14.90;84.50
43679;DHT22;29279;50.858;4.392;2024-03-07T16:13:12;14.70;86.30
43679;DHT22;29279;50.858;4.392;2024-03-07T16:15:41;14.60;85.90
43679;DHT22;29279;50.858;4.392;2024-03-07T16:18:07;14.60;86.70
43679;DHT22;29279;50.858;4.392;2024-03-07T16:20:34;14.70;85.50
43679;DHT22;29279;50.858;4.392;2024-03-07T16:23:01;14.90;84.30
43679;DHT22;29279;50.858;4.392;2024-03-07T16:25:31;15.00;84.90
43679;DHT22;29279;50.858;4.392;2024-03-07T16:27:57;14.80;86.20
43679;DHT22;29279;50.858;4.392;2024-03-07T16:30:24;14.70;86.30